createdAt,value
2023-05-16T00:01:43.261Z,3.70
2023-05-16T00:04:10.625Z,4.05
2023-05-16T00:06:37.895Z,5.70
2023-05-16T00:09:05.080Z,4.15
2023-05-16T00:11:32.423Z,3.17
2023-05-16T00:13:59.633Z,4.22
2023-05-16T00:16:29.567Z,4.15
2023-05-16T00:18:58.145Z,6.53
2023-05-16T00:21:25.451Z,5.57
2023-05-16T00:23:53.115Z,7.28
2023-05-16T00:26:20.643Z,4.72
2023-05-16T00:28:48.098Z,4.32
2023-05-16T00:31:15.246Z,3.97
2023-05-16T00:33:42.482Z,4.43
2023-05-16T00:36:09.902Z,5.30
2023-05-16T00:38:37.882Z,4.32
2023-05-16T00:41:05.013Z,3.58
2023-05-16T00:43:32.262Z,4.43
2023-05-16T00:46:00.836Z,5.03
2023-05-16T00:48:28.167Z,4.80
2023-05-16T00:50:55.451Z,5.65
2023-05-16T00:53:24.266Z,8.95
2023-05-16T00:55:52.579Z,5.45
2023-05-16T00:58:21.978Z,6.28
2023-05-16T01:00:50.113Z,4.80
2023-05-16T01:03:17.447Z,5.45
2023-05-16T01:05:44.936Z,5.47
2023-05-16T01:08:12.136Z,5.80
2023-05-16T01:10:53.414Z,5.93
2023-05-16T01:13:34.036Z,4.68
2023-05-16T01:16:10.270Z,4.85
2023-05-16T01:18:56.834Z,7.13
2023-05-16T01:36:12.323Z,4.70
2023-05-16T01:38:46.290Z,8.17
2023-05-16T01:41:50.204Z,4.32
2023-05-16T01:44:29.098Z,7.05
2023-05-16T01:47:00.547Z,3.80
2023-05-16T02:23:44.621Z,4.40
2023-05-16T02:26:11.795Z,4.80
2023-05-16T02:28:39.038Z,3.75
2023-05-16T02:31:06.335Z,4.45
2023-05-16T02:33:33.666Z,4.18
2023-05-16T02:36:00.928Z,5.30
2023-05-16T02:38:28.263Z,4.63
2023-05-16T02:40:55.495Z,4.82
2023-05-16T02:43:22.684Z,4.32
2023-05-16T02:45:49.901Z,5.68
2023-05-16T02:48:17.247Z,3.58
2023-05-16T02:50:44.524Z,4.15
2023-05-16T02:53:11.798Z,4.10
2023-05-16T02:55:39.187Z,5.45
2023-05-16T02:58:06.548Z,5.15
2023-05-16T03:00:33.882Z,3.50
2023-05-16T03:03:01.692Z,4.30
2023-05-16T03:05:29.192Z,6.20
2023-05-16T03:07:56.551Z,4.43
2023-05-16T03:10:23.943Z,4.00
2023-05-16T03:12:51.203Z,4.93
2023-05-16T03:15:18.351Z,4.07
2023-05-16T03:17:45.545Z,4.78
2023-05-16T03:20:13.055Z,5.30
2023-05-16T03:22:40.755Z,3.60
2023-05-16T03:25:08.285Z,5.10
2023-05-16T03:27:35.498Z,4.65
2023-05-16T03:30:02.694Z,4.57
2023-05-16T03:32:29.950Z,6.00
2023-05-16T03:34:57.205Z,5.93
2023-05-16T03:37:24.503Z,3.72
2023-05-16T03:39:51.767Z,3.90
2023-05-16T03:42:19.043Z,3.20
2023-05-16T03:44:46.353Z,5.60
2023-05-16T03:47:13.548Z,5.03
2023-05-16T03:49:41.411Z,4.70
2023-05-16T03:52:08.798Z,3.58
2023-05-16T03:54:36.195Z,4.28
2023-05-16T03:57:03.689Z,4.07
2023-05-16T03:59:30.900Z,4.05
2023-05-16T04:01:58.078Z,4.15
2023-05-16T04:04:25.271Z,3.47
2023-05-16T04:06:52.522Z,3.90
2023-05-16T04:09:19.885Z,5.82
2023-05-16T04:11:47.096Z,6.10
2023-05-16T04:14:15.777Z,3.70
2023-05-16T04:16:43.000Z,3.92
2023-05-16T04:19:10.322Z,4.15
2023-05-16T04:21:37.594Z,4.30
2023-05-16T04:24:05.474Z,5.18
2023-05-16T04:26:32.700Z,4.53
2023-05-16T04:29:00.357Z,4.40
2023-05-16T04:31:27.766Z,5.28
2023-05-16T04:33:56.197Z,4.97
2023-05-16T04:36:23.673Z,4.43
2023-05-16T04:38:51.163Z,4.03
2023-05-16T04:41:18.326Z,4.45
2023-05-16T04:43:45.947Z,4.55
2023-05-16T04:46:13.126Z,7.22
2023-05-16T04:48:40.287Z,5.25
2023-05-16T04:51:07.642Z,4.78
2023-05-16T04:53:35.059Z,4.85
2023-05-16T04:56:02.294Z,4.35
2023-05-16T04:58:29.481Z,5.38
2023-05-16T05:00:56.971Z,5.10
2023-05-16T05:03:24.384Z,4.43
2023-05-16T05:05:52.010Z,4.45
2023-05-16T05:08:19.619Z,6.28
2023-05-16T05:24:35.360Z,5.57
2023-05-16T05:27:02.652Z,4.97
2023-05-16T05:29:30.195Z,6.05
2023-05-16T05:31:57.430Z,5.05
2023-05-16T05:34:24.847Z,5.10
2023-05-16T05:36:52.119Z,4.72
2023-05-16T05:39:19.369Z,5.15
2023-05-16T05:41:46.808Z,4.82
2023-05-16T05:44:14.202Z,5.38
2023-05-16T06:03:02.763Z,6.40
2023-05-16T06:05:30.205Z,4.18
2023-05-16T06:07:57.774Z,5.15
2023-05-16T06:10:24.979Z,5.55
2023-05-16T06:12:52.461Z,5.65
2023-05-16T06:15:19.663Z,6.53
2023-05-16T06:17:46.805Z,5.88
2023-05-16T06:20:14.094Z,5.65
2023-05-16T06:22:41.339Z,5.45
2023-05-16T06:25:08.827Z,6.88
2023-05-16T06:27:36.114Z,5.68
2023-05-16T06:30:03.407Z,5.05
2023-05-16T06:32:30.732Z,4.90
2023-05-16T06:34:57.850Z,5.43
2023-05-16T06:37:26.435Z,4.50
2023-05-16T06:39:53.582Z,4.22
2023-05-16T06:42:21.047Z,4.80
2023-05-16T06:44:48.470Z,4.75
2023-05-16T06:47:16.992Z,6.15
2023-05-16T06:49:44.348Z,4.28
2023-05-16T06:52:11.741Z,6.18
2023-05-16T06:54:39.086Z,6.57
2023-05-16T06:57:07.280Z,4.47
2023-05-16T06:59:35.408Z,6.03
2023-05-16T07:02:02.724Z,5.35
2023-05-16T07:04:29.980Z,5.28
2023-05-16T07:06:57.315Z,7.18
2023-05-16T07:09:24.758Z,5.45
2023-05-16T07:11:52.111Z,4.32
2023-05-16T07:14:19.378Z,5.45
2023-05-16T07:16:46.947Z,4.97
2023-05-16T07:19:14.372Z,5.72
2023-05-16T07:21:41.900Z,6.85
2023-05-16T07:24:12.012Z,4.45
2023-05-16T07:26:39.336Z,5.38
2023-05-16T07:29:06.451Z,5.00
2023-05-16T07:31:33.747Z,6.65
2023-05-16T07:34:01.354Z,4.95
2023-05-16T07:36:28.511Z,4.75
2023-05-16T07:38:55.900Z,7.50
2023-05-16T07:41:23.102Z,5.35
2023-05-16T07:43:50.349Z,5.30
2023-05-16T07:46:17.770Z,8.20
2023-05-16T07:48:45.183Z,5.35
2023-05-16T07:51:12.530Z,5.43
2023-05-16T07:53:39.770Z,5.10
2023-05-16T07:56:08.524Z,4.85
2023-05-16T07:58:36.007Z,5.53
2023-05-16T08:01:03.250Z,5.55
2023-05-16T08:03:30.776Z,5.57
2023-05-16T08:05:58.301Z,5.07
2023-05-16T08:08:25.706Z,5.50
2023-05-16T08:10:52.934Z,5.13
2023-05-16T08:13:20.116Z,5.95
2023-05-16T08:15:47.559Z,5.28
2023-05-16T08:18:15.835Z,5.47
2023-05-16T08:20:43.168Z,4.38
2023-05-16T08:23:10.679Z,4.85
2023-05-16T08:25:38.042Z,4.38
2023-05-16T08:28:05.533Z,5.28
2023-05-16T08:30:32.727Z,6.50
2023-05-16T08:32:59.944Z,7.00
2023-05-16T08:35:27.666Z,5.47
2023-05-16T08:37:55.154Z,5.15
2023-05-16T08:40:25.751Z,4.72
2023-05-16T08:42:54.078Z,8.20
2023-05-16T08:45:23.052Z,3.83
2023-05-16T08:47:53.944Z,4.45
2023-05-16T08:50:21.735Z,5.72
2023-05-16T08:52:52.952Z,5.03
2023-05-16T08:55:22.421Z,4.63
2023-05-16T08:57:51.504Z,5.20
2023-05-16T09:00:19.765Z,7.03
2023-05-16T09:02:47.455Z,4.28
2023-05-16T09:05:18.743Z,4.50
2023-05-16T09:07:46.613Z,6.07
2023-05-16T09:10:14.102Z,4.10
2023-05-16T09:12:42.362Z,5.70
2023-05-16T09:15:11.356Z,5.60
2023-05-16T09:17:47.080Z,6.05
2023-05-16T09:20:16.348Z,7.40
2023-05-16T09:23:00.394Z,5.15
2023-05-16T09:25:31.341Z,5.88
2023-05-16T09:28:02.429Z,5.55
2023-05-16T09:30:34.120Z,4.97
2023-05-16T09:33:02.243Z,7.18
2023-05-16T09:37:59.888Z,5.05
2023-05-16T09:40:27.091Z,4.72
2023-05-16T09:43:05.865Z,5.20
2023-05-16T09:45:34.764Z,3.22
2023-05-16T09:48:07.227Z,5.45
2023-05-16T09:50:36.816Z,5.40
2023-05-16T09:53:05.080Z,4.37
2023-05-16T09:55:32.939Z,5.72
2023-05-16T09:58:00.388Z,4.57
2023-05-16T10:00:32.513Z,6.00
2023-05-16T10:03:04.252Z,4.82
2023-05-16T10:05:32.421Z,4.45
2023-05-16T10:08:00.073Z,4.93
2023-05-16T10:10:28.744Z,6.53
2023-05-16T10:13:01.729Z,4.45
2023-05-16T10:15:30.297Z,4.65
2023-05-16T10:18:02.191Z,4.60
2023-05-16T10:20:30.120Z,4.50
2023-05-16T10:22:59.024Z,4.95
2023-05-16T10:25:34.874Z,5.05
2023-05-16T10:28:04.291Z,4.45
2023-05-16T10:30:34.699Z,4.10
2023-05-16T10:35:31.219Z,4.53
2023-05-16T10:37:58.963Z,5.45
2023-05-16T10:40:27.230Z,4.85
2023-05-16T10:43:02.250Z,5.18
2023-05-16T10:45:29.971Z,5.88
2023-05-16T10:47:59.345Z,4.65
2023-05-16T10:50:43.797Z,4.78
2023-05-16T10:53:31.645Z,4.90
2023-05-16T10:56:01.648Z,4.63
2023-05-16T10:58:43.973Z,4.32
2023-05-16T11:01:32.933Z,4.88
2023-05-16T11:04:00.451Z,5.28
2023-05-16T11:06:44.938Z,4.75
2023-05-16T11:09:12.223Z,7.43
2023-05-16T11:11:46.440Z,5.82
2023-05-16T11:14:33.649Z,5.90
2023-05-16T11:17:28.258Z,4.50
2023-05-16T11:20:04.317Z,3.50
2023-05-16T11:22:34.501Z,4.50
2023-05-16T11:25:08.124Z,4.78
2023-05-16T11:27:37.331Z,6.20
2023-05-16T11:30:07.492Z,5.13
2023-05-16T11:32:36.192Z,4.53
2023-05-16T11:35:04.503Z,4.85
2023-05-16T11:37:31.781Z,5.20
2023-05-16T11:40:04.022Z,4.43
2023-05-16T11:42:39.654Z,4.53
2023-05-16T11:45:12.495Z,3.63
2023-05-16T11:47:40.946Z,4.13
2023-05-16T11:50:12.055Z,4.03
2023-05-16T11:52:39.697Z,4.03
2023-05-16T11:55:11.444Z,4.65
2023-05-16T11:57:39.597Z,4.10
2023-05-16T12:00:18.597Z,4.25
2023-05-16T12:02:52.583Z,5.10
2023-05-16T12:05:25.781Z,4.55
2023-05-16T12:07:55.701Z,2.97
2023-05-16T12:10:23.263Z,3.72
2023-05-16T12:12:53.193Z,3.30
2023-05-16T12:15:21.365Z,3.42
2023-05-16T12:17:49.037Z,2.55
2023-05-16T12:20:17.275Z,4.70
2023-05-16T12:22:45.574Z,4.30
2023-05-16T12:25:31.121Z,4.00
2023-05-16T12:28:01.285Z,4.20
2023-05-16T12:30:30.519Z,4.25
2023-05-16T12:33:05.776Z,4.38
2023-05-16T12:35:36.438Z,4.82
2023-05-16T12:38:07.977Z,5.20
2023-05-16T12:40:37.884Z,4.57
2023-05-16T12:43:12.910Z,3.53
2023-05-16T12:45:40.079Z,4.20
2023-05-16T12:48:13.288Z,4.50
2023-05-16T12:50:42.092Z,4.47
2023-05-16T12:53:14.705Z,4.53
2023-05-16T12:55:42.587Z,4.07
2023-05-16T12:58:10.768Z,5.97
2023-05-16T13:00:38.352Z,4.95
2023-05-16T13:03:07.975Z,4.40
2023-05-16T13:05:36.534Z,4.68
2023-05-16T13:08:04.428Z,5.05
2023-05-16T13:10:31.760Z,5.72
2023-05-16T13:13:00.509Z,5.53
2023-05-16T13:15:28.432Z,4.88
2023-05-16T13:17:56.186Z,4.85
2023-05-16T13:20:23.915Z,4.38
2023-05-16T13:22:51.323Z,5.55
2023-05-16T13:25:18.541Z,3.92
2023-05-16T13:27:46.540Z,4.40
2023-05-16T13:30:13.999Z,5.50
2023-05-16T13:32:41.612Z,4.45
2023-05-16T13:35:09.931Z,5.18
2023-05-16T13:37:38.045Z,4.65
2023-05-16T13:40:06.105Z,5.97
2023-05-16T13:42:33.298Z,6.13
2023-05-16T13:45:00.493Z,8.43
2023-05-16T13:47:27.722Z,6.00
2023-05-16T13:49:54.867Z,5.43
2023-05-16T13:52:22.300Z,5.47
2023-05-16T13:54:49.560Z,5.57
2023-05-16T13:57:16.934Z,5.55
2023-05-16T14:02:14.349Z,4.75
2023-05-16T14:04:41.718Z,5.18
2023-05-16T14:07:08.863Z,5.47
2023-05-16T14:09:39.436Z,5.07
2023-05-16T14:12:12.406Z,5.78
2023-05-16T14:14:40.457Z,5.07
2023-05-16T14:17:07.949Z,5.50
2023-05-16T14:19:35.234Z,6.13
2023-05-16T14:22:02.611Z,6.25
2023-05-16T14:24:29.876Z,6.85
2023-05-16T14:26:57.122Z,5.45
2023-05-16T14:29:25.834Z,5.50
2023-05-16T14:31:53.474Z,6.85
2023-05-16T14:34:22.670Z,6.00
2023-05-16T14:36:51.169Z,5.95
2023-05-16T14:39:18.511Z,6.25
2023-05-16T14:41:45.869Z,5.50
2023-05-16T14:44:13.067Z,5.95
2023-05-16T14:46:40.494Z,6.60
2023-05-16T14:49:09.421Z,6.78
2023-05-16T14:51:36.680Z,6.05
2023-05-16T14:54:04.441Z,5.68
2023-05-16T14:56:32.313Z,5.95
2023-05-16T14:59:00.593Z,6.72
2023-05-16T15:01:28.065Z,5.90
2023-05-16T15:03:56.372Z,7.28
2023-05-16T15:06:25.014Z,5.75
2023-05-16T15:08:52.585Z,5.93
2023-05-16T15:11:19.977Z,5.28
2023-05-16T15:13:48.591Z,6.40
2023-05-16T15:16:16.509Z,5.22
2023-05-16T15:18:44.385Z,4.13
2023-05-16T15:21:11.682Z,4.53
2023-05-16T15:23:38.835Z,4.43
2023-05-16T15:26:06.676Z,4.85
2023-05-16T15:28:33.892Z,4.75
2023-05-16T15:31:01.075Z,4.97
2023-05-16T15:33:28.285Z,4.28
2023-05-16T15:35:56.229Z,4.25
2023-05-16T15:38:23.404Z,7.28
2023-05-16T15:40:55.255Z,4.95
2023-05-16T15:43:33.241Z,4.32
2023-05-16T15:46:00.576Z,4.65
2023-05-16T15:48:27.715Z,4.32
2023-05-16T15:50:55.021Z,4.28
2023-05-16T15:53:22.251Z,4.57
2023-05-16T15:55:49.668Z,5.07
2023-05-16T15:58:16.897Z,3.58
2023-05-16T16:00:45.968Z,4.90
2023-05-16T16:03:13.330Z,5.40
2023-05-16T16:05:40.728Z,3.88
2023-05-16T16:08:07.850Z,4.40
2023-05-16T16:10:35.298Z,3.15
2023-05-16T16:13:04.266Z,3.72
2023-05-16T16:15:34.345Z,3.58
2023-05-16T16:18:02.055Z,3.83
2023-05-16T16:20:29.574Z,3.08
2023-05-16T16:22:56.789Z,3.30
2023-05-16T16:25:24.131Z,5.00
2023-05-16T16:27:51.999Z,5.97
2023-05-16T16:30:19.192Z,3.30
2023-05-16T16:32:48.966Z,3.03
2023-05-16T16:35:16.449Z,2.53
2023-05-16T16:37:54.590Z,3.22
2023-05-16T16:40:31.126Z,5.55
2023-05-16T16:42:59.040Z,3.47
2023-05-16T16:45:27.399Z,3.05
2023-05-16T16:47:54.702Z,2.88
2023-05-16T16:50:22.222Z,3.85
2023-05-16T16:52:49.498Z,3.60
2023-05-16T16:55:16.956Z,3.35
2023-05-16T16:57:44.183Z,3.88
2023-05-16T17:00:15.361Z,3.53
2023-05-16T17:02:42.996Z,3.63
2023-05-16T17:05:11.157Z,3.20
2023-05-16T17:07:38.500Z,3.17
2023-05-16T17:10:08.108Z,3.58
2023-05-16T17:12:35.830Z,3.50
2023-05-16T17:15:03.690Z,3.47
2023-05-16T17:17:31.282Z,3.35
2023-05-16T17:19:58.686Z,3.08
2023-05-16T17:22:26.277Z,3.28
2023-05-16T17:24:53.505Z,3.38
2023-05-16T17:27:20.825Z,3.10
2023-05-16T17:29:48.054Z,3.22
2023-05-16T17:32:17.573Z,3.97
2023-05-16T17:34:44.993Z,3.43
2023-05-16T17:37:12.366Z,2.60
2023-05-16T17:39:40.098Z,3.72
2023-05-16T17:42:07.887Z,4.47
2023-05-16T17:44:36.361Z,3.70
2023-05-16T17:47:04.310Z,4.05
2023-05-16T17:49:31.709Z,3.10
2023-05-16T17:51:59.371Z,3.65
2023-05-16T17:54:30.858Z,3.50
2023-05-16T17:56:58.811Z,3.65
2023-05-16T17:59:27.672Z,3.45
2023-05-16T18:01:57.692Z,3.58
2023-05-16T18:04:25.751Z,3.78
2023-05-16T18:06:53.095Z,4.57
2023-05-16T18:09:21.429Z,3.33
2023-05-16T18:11:49.514Z,3.95
2023-05-16T18:14:17.447Z,3.42
2023-05-16T18:16:44.807Z,2.95
2023-05-16T18:19:12.913Z,2.78
2023-05-16T18:21:40.349Z,3.85
2023-05-16T18:24:08.799Z,4.22
2023-05-16T18:26:36.442Z,4.05
2023-05-16T18:29:04.083Z,3.78
2023-05-16T18:31:33.815Z,2.80
2023-05-16T18:34:04.117Z,3.25
2023-05-16T18:36:31.982Z,4.07
2023-05-16T18:38:59.205Z,3.38
2023-05-16T18:41:27.253Z,3.17
2023-05-16T18:43:54.518Z,4.50
2023-05-16T18:46:21.672Z,4.30
2023-05-16T18:48:48.944Z,4.85
2023-05-16T18:51:16.547Z,4.32
2023-05-16T18:53:44.581Z,3.03
2023-05-16T18:56:11.783Z,2.85
2023-05-16T18:58:38.933Z,3.10
2023-05-16T19:01:06.224Z,2.28
2023-05-16T19:03:33.543Z,3.55
2023-05-16T19:06:00.867Z,2.17
2023-05-16T19:08:40.319Z,1.98
2023-05-16T19:11:13.930Z,3.95
2023-05-16T19:13:41.383Z,1.92
2023-05-16T19:16:08.695Z,2.38
2023-05-16T19:18:36.175Z,1.88
2023-05-16T19:21:03.997Z,2.13
2023-05-16T19:23:31.126Z,1.58
2023-05-16T19:25:58.307Z,1.73
2023-05-16T19:28:25.547Z,1.73
2023-05-16T19:30:52.704Z,1.90
2023-05-16T19:33:21.652Z,1.80
2023-05-16T19:35:51.721Z,2.05
2023-05-16T19:38:20.077Z,2.10
2023-05-16T19:40:47.469Z,2.42
2023-05-16T19:43:14.728Z,1.73
2023-05-16T19:45:41.957Z,2.10
2023-05-16T19:48:09.914Z,2.10
2023-05-16T19:50:37.272Z,1.60
2023-05-16T19:53:04.566Z,1.88
2023-05-16T19:55:32.175Z,2.03
2023-05-16T19:57:59.401Z,2.20
2023-05-16T20:00:26.627Z,1.65
2023-05-16T20:02:54.074Z,1.98
2023-05-16T20:05:23.499Z,1.63
2023-05-16T20:07:51.313Z,2.40
2023-05-16T20:10:20.419Z,1.98
2023-05-16T20:12:49.164Z,1.60
2023-05-16T20:15:16.561Z,1.90
2023-05-16T20:17:43.911Z,1.95
2023-05-16T20:20:11.560Z,1.73
2023-05-16T20:22:39.677Z,1.70
2023-05-16T20:25:07.944Z,1.63
2023-05-16T20:27:35.726Z,1.88
2023-05-16T20:30:04.705Z,1.73
2023-05-16T20:32:31.994Z,2.63
2023-05-16T20:34:59.323Z,1.70
2023-05-16T20:37:32.041Z,2.22
2023-05-16T20:39:59.242Z,1.70
2023-05-16T20:42:26.495Z,2.10
2023-05-16T20:44:53.812Z,2.03
2023-05-16T20:47:21.157Z,1.58
2023-05-16T20:49:48.309Z,1.73
2023-05-16T20:52:15.636Z,2.17
2023-05-16T20:54:42.956Z,1.80
2023-05-16T20:57:10.176Z,1.83
2023-05-16T20:59:40.108Z,1.58
2023-05-16T21:02:10.021Z,1.70
2023-05-16T21:04:38.074Z,1.48
2023-05-16T21:07:08.227Z,1.65
2023-05-16T21:12:04.995Z,1.38
2023-05-16T21:14:32.238Z,1.77
2023-05-16T21:16:59.446Z,2.90
2023-05-16T21:19:26.729Z,1.70
2023-05-16T21:21:53.977Z,1.70
2023-05-16T21:24:21.239Z,1.80
2023-05-16T21:26:48.405Z,2.72
2023-05-16T21:29:15.689Z,1.80
2023-05-16T21:31:42.946Z,2.22
2023-05-16T21:34:10.255Z,2.45
2023-05-16T21:36:37.570Z,1.67
2023-05-16T21:39:04.785Z,2.10
2023-05-16T21:41:32.003Z,2.88
2023-05-16T21:43:59.310Z,2.53
2023-05-16T21:46:26.710Z,1.98
2023-05-16T21:48:54.006Z,2.35
2023-05-16T21:51:21.368Z,1.98
2023-05-16T21:53:48.642Z,3.67
2023-05-16T21:56:15.839Z,2.83
2023-05-16T21:58:43.171Z,3.35
2023-05-16T22:01:10.690Z,2.35
2023-05-16T22:03:37.973Z,2.65
2023-05-16T22:06:05.630Z,2.95
2023-05-16T22:08:32.827Z,2.80
2023-05-16T22:11:00.090Z,2.88
2023-05-16T22:13:27.424Z,3.50
2023-05-16T22:16:04.092Z,3.10
2023-05-16T22:18:33.390Z,3.53
2023-05-16T22:21:01.361Z,2.83
2023-05-16T22:23:28.625Z,3.30
2023-05-16T22:25:56.223Z,2.88
2023-05-16T22:28:23.364Z,2.35
2023-05-16T22:30:50.543Z,4.00
2023-05-16T22:33:17.942Z,6.05
2023-05-16T22:35:45.285Z,3.90
2023-05-16T22:38:12.500Z,4.22
2023-05-16T22:40:41.349Z,2.75
2023-05-16T22:43:08.622Z,3.60
2023-05-16T22:45:35.912Z,5.07
2023-05-16T22:48:03.322Z,4.07
2023-05-16T22:50:30.731Z,2.95
2023-05-16T22:52:57.947Z,3.65
2023-05-16T22:55:25.326Z,4.38
2023-05-16T22:57:54.890Z,4.43
2023-05-16T23:00:23.846Z,4.10
2023-05-16T23:02:51.391Z,3.97
2023-05-16T23:05:18.690Z,3.05
2023-05-16T23:07:46.020Z,3.30
2023-05-16T23:10:13.230Z,3.17
2023-05-16T23:12:40.538Z,3.58
2023-05-16T23:15:10.508Z,3.35
2023-05-16T23:17:38.633Z,4.00
2023-05-16T23:20:07.310Z,3.53
2023-05-16T23:22:34.867Z,3.72
2023-05-16T23:25:02.186Z,4.10
2023-05-16T23:27:29.383Z,4.30
2023-05-16T23:29:56.679Z,4.53
2023-05-16T23:32:23.921Z,4.03
2023-05-16T23:34:51.256Z,4.55
2023-05-16T23:37:18.513Z,3.90
2023-05-16T23:39:45.756Z,4.38
2023-05-16T23:42:13.163Z,4.30
2023-05-16T23:44:42.061Z,3.95
2023-05-16T23:47:09.661Z,3.92
2023-05-16T23:49:36.808Z,4.18
2023-05-16T23:52:06.153Z,3.75
2023-05-16T23:54:34.351Z,3.42
2023-05-16T23:57:01.716Z,3.90
2023-05-16T23:59:28.916Z,4.47
